Terminal Aerodrome Forecast
Issued by NWS Pittsburgh, PA

Current Version | Previous Version | Graphics & Text | Print | Product List | Glossary On
Versions: 1 2 3 4 5 6 7 8 9 10 11 12 13 14 15 16 17 18 19 20 21 22 23 24 25 26 27 28
333
FTUS41 KPBZ 242335
TAFPIT
TAF
KPIT 242335Z 2500/2606 20003KT P6SM BKN200
     FM251600 25008KT P6SM VCTS BKN250CB
     FM251900 26008KT P6SM SHRA VCTS BKN090CB
     FM252200 27008KT P6SM VCTS BKN250CB
     FM260300 28004KT P6SM SCT250=

USA.gov is the U.S. government's official web portal to all federal, state and local government web resources and services.